Time;durP1;ratioP1;P1;durP2;ratioP2;P2;SDS_P1;SDS_P2;PMS_P1;PMS_P2;Temp;Humidity;BMP_temperature;BMP_pressure;BME280_temperature;BME280_humidity;BME280_pressure;Samples;Min_cycle;Max_cycle;Signal;HPM_P1;HPM_P2
2023/12/16 00:00:59;;;;;;;4.23;3.03;;;;;;;20.19;48.12;99618.97;5021821;28;20218;-29
2023/12/16 00:03:27;;;;;;;3.10;2.73;;;;;;;20.18;48.21;99616.31;5016751;28;20209;-28
2023/12/16 00:05:53;;;;;;;3.47;3.00;;;;;;;20.18;48.50;99609.53;5021518;28;20201;-28
2023/12/16 00:08:21;;;;;;;2.97;2.43;;;;;;;20.19;48.30;99611.31;5017098;28;20285;-28
2023/12/16 00:10:48;;;;;;;3.00;2.60;;;;;;;20.20;48.19;99604.53;5021049;28;20253;-29
2023/12/16 00:13:20;;;;;;;3.03;2.47;;;;;;;20.19;48.33;99602.78;5015686;28;20218;-30
2023/12/16 00:15:46;;;;;;;4.20;2.60;;;;;;;20.17;48.21;99591.56;5015971;28;20202;-28
2023/12/16 00:18:13;;;;;;;3.47;2.90;;;;;;;20.16;48.45;99590.69;5020577;28;20206;-27
2023/12/16 00:20:40;;;;;;;4.37;2.50;;;;;;;20.16;48.27;99585.56;5016665;28;20248;-35
2023/12/16 00:23:07;;;;;;;2.90;2.57;;;;;;;20.15;48.55;99588.91;5022868;28;20226;-30
2023/12/16 00:25:34;;;;;;;3.77;2.73;;;;;;;20.16;48.82;99592.38;5015572;28;20202;-33
2023/12/16 00:28:00;;;;;;;3.23;2.70;;;;;;;20.16;48.57;99600.03;5014895;28;20205;-32
2023/12/16 00:30:27;;;;;;;4.23;2.70;;;;;;;20.15;48.51;99604.22;5016535;28;20218;-29
2023/12/16 00:32:54;;;;;;;2.90;2.53;;;;;;;20.16;48.52;99617.91;5015351;28;20630;-29
2023/12/16 00:35:20;;;;;;;2.40;2.20;;;;;;;20.16;48.55;99630.66;5015348;28;20226;-28
2023/12/16 00:37:47;;;;;;;2.70;2.50;;;;;;;20.16;48.46;99641.72;5015164;28;20390;-30
2023/12/16 00:40:14;;;;;;;3.43;2.40;;;;;;;20.15;48.54;99646.75;5025543;28;20230;-28
2023/12/16 00:42:40;;;;;;;2.87;2.50;;;;;;;20.16;48.66;99646.84;5016739;28;20202;-38
2023/12/16 00:45:07;;;;;;;3.50;2.57;;;;;;;20.16;48.50;99649.41;5010576;28;20681;-32
2023/12/16 00:47:34;;;;;;;3.67;2.57;;;;;;;20.16;48.53;99640.88;5014157;28;20621;-28
2023/12/16 00:50:01;;;;;;;3.07;2.37;;;;;;;20.16;48.65;99646.84;5025191;28;20221;-28
2023/12/16 00:52:27;;;;;;;3.10;2.70;;;;;;;20.17;48.43;99647.75;5016022;28;20204;-30
2023/12/16 00:54:54;;;;;;;3.30;2.67;;;;;;;20.18;48.60;99644.38;5016822;28;20230;-29
2023/12/16 00:57:20;;;;;;;3.47;2.70;;;;;;;20.17;48.40;99632.41;5019032;28;20194;-28
2023/12/16 00:59:47;;;;;;;3.27;2.50;;;;;;;20.18;48.37;99629.06;5018327;28;20250;-28
2023/12/16 01:02:13;;;;;;;2.93;2.63;;;;;;;20.15;48.36;99617.00;5015567;28;20205;-28
2023/12/16 01:04:41;;;;;;;3.13;2.57;;;;;;;20.18;48.63;99629.97;5013582;28;20199;-32
2023/12/16 01:07:08;;;;;;;3.87;2.30;;;;;;;20.07;48.61;99613.00;5015614;28;20617;-28
2023/12/16 01:09:35;;;;;;;4.27;2.60;;;;;;;20.19;48.64;99630.88;5019232;28;20205;-30
2023/12/16 01:12:02;;;;;;;3.03;2.40;;;;;;;20.18;48.56;99632.53;5015249;28;20209;-29
2023/12/16 01:14:29;;;;;;;3.07;2.57;;;;;;;20.19;48.60;99626.63;5013824;28;20309;-30
2023/12/16 01:16:55;;;;;;;2.83;2.60;;;;;;;20.19;48.61;99639.38;5014224;28;20210;-33
2023/12/16 01:19:22;;;;;;;3.40;2.77;;;;;;;20.21;48.77;99644.59;5014558;28;20555;-29
2023/12/16 01:21:48;;;;;;;3.13;2.63;;;;;;;20.20;48.60;99643.75;5015706;28;20278;-30
2023/12/16 01:24:15;;;;;;;3.63;2.70;;;;;;;20.20;48.44;99653.94;5013813;28;20198;-28
2023/12/16 01:26:42;;;;;;;4.77;2.50;;;;;;;20.22;48.44;99651.50;5012196;28;20249;-29
2023/12/16 01:29:08;;;;;;;2.50;2.30;;;;;;;20.20;48.57;99648.84;5014838;28;20260;-27
2023/12/16 01:31:35;;;;;;;4.33;2.77;;;;;;;20.21;48.50;99644.59;5019094;28;20291;-28
2023/12/16 01:34:02;;;;;;;3.73;2.53;;;;;;;20.20;48.27;99653.94;5016930;28;20221;-29
2023/12/16 01:36:29;;;;;;;3.83;2.50;;;;;;;20.18;48.79;99652.06;5013368;28;20198;-30
2023/12/16 01:38:55;;;;;;;2.97;2.33;;;;;;;20.17;48.63;99646.09;5014361;28;20253;-29
2023/12/16 01:41:22;;;;;;;2.87;2.50;;;;;;;20.18;48.61;99632.53;5014751;28;20221;-29
2023/12/16 01:43:48;;;;;;;3.07;2.50;;;;;;;20.15;48.77;99650.19;5014942;28;20204;-28
2023/12/16 01:46:15;;;;;;;2.60;2.10;;;;;;;20.17;48.87;99647.75;5014336;28;20276;-30
2023/12/16 01:48:42;;;;;;;4.43;2.77;;;;;;;20.18;48.91;99649.50;5012614;28;20234;-32
2023/12/16 01:51:09;;;;;;;4.63;2.90;;;;;;;20.16;48.84;99645.97;5017296;28;20549;-27
2023/12/16 01:53:35;;;;;;;2.80;2.50;;;;;;;20.18;48.87;99660.59;5008197;28;20234;-28
2023/12/16 01:56:02;;;;;;;2.53;2.33;;;;;;;20.17;48.83;99658.84;5014958;28;20206;-30
2023/12/16 01:58:29;;;;;;;2.97;2.57;;;;;;;20.17;48.80;99663.06;5015386;28;20237;-28
2023/12/16 02:00:55;;;;;;;2.90;2.43;;;;;;;20.17;48.87;99674.16;5014204;28;20249;-28
2023/12/16 02:03:22;;;;;;;5.00;2.50;;;;;;;20.18;48.91;99662.25;5013730;28;20734;-28
2023/12/16 02:05:49;;;;;;;2.30;2.03;;;;;;;20.18;48.91;99665.72;5013178;28;20194;-36
2023/12/16 02:08:15;;;;;;;4.23;2.63;;;;;;;20.18;48.83;99664.81;5015721;28;20665;-28
2023/12/16 02:10:43;;;;;;;2.77;2.50;;;;;;;20.18;48.47;99660.59;5013634;28;20257;-27
2023/12/16 02:13:10;;;;;;;2.90;2.30;;;;;;;20.19;48.89;99653.84;4996671;28;20206;-28
2023/12/16 02:15:36;;;;;;;2.80;2.60;;;;;;;20.19;48.60;99656.41;5015296;28;20210;-28
2023/12/16 02:18:03;;;;;;;4.23;2.80;;;;;;;20.19;48.79;99657.25;5023781;28;20698;-30
2023/12/16 02:20:30;;;;;;;4.67;2.90;;;;;;;20.19;48.64;99653.84;5007431;28;20218;-28
2023/12/16 02:22:57;;;;;;;3.40;2.77;;;;;;;20.18;48.90;99665.72;5014372;28;20261;-27
2023/12/16 02:25:23;;;;;;;2.57;2.37;;;;;;;20.20;48.72;99669.28;5012312;28;20194;-31
2023/12/16 02:27:50;;;;;;;3.07;2.40;;;;;;;20.21;48.87;99677.78;5014413;28;20277;-28
2023/12/16 02:30:20;;;;;;;3.23;2.50;;;;;;;20.20;48.87;99682.03;5014303;28;20233;-28
2023/12/16 02:32:47;;;;;;;3.10;2.60;;;;;;;20.20;48.83;99679.47;5026787;28;20198;-27
2023/12/16 02:35:14;;;;;;;4.70;2.50;;;;;;;20.20;48.85;99668.38;5012959;28;20246;-30
2023/12/16 02:37:40;;;;;;;3.00;2.57;;;;;;;20.21;48.69;99676.13;5012583;28;20202;-28
2023/12/16 02:40:08;;;;;;;2.57;2.37;;;;;;;20.22;48.69;99684.69;5018275;28;20291;-28
2023/12/16 02:42:35;;;;;;;3.17;2.70;;;;;;;20.22;48.70;99689.81;5015060;28;20260;-28
2023/12/16 02:45:02;;;;;;;2.40;2.20;;;;;;;20.22;48.77;99690.66;5012068;28;20611;-28
2023/12/16 02:47:29;;;;;;;4.33;2.30;;;;;;;20.24;48.79;99685.66;5012773;28;20202;-29
2023/12/16 02:49:55;;;;;;;2.47;2.27;;;;;;;20.22;48.81;99677.91;5013095;28;20609;-31
2023/12/16 02:52:22;;;;;;;2.97;2.50;;;;;;;20.21;48.88;99683.78;5013704;28;20213;-27
2023/12/16 02:54:48;;;;;;;3.03;2.60;;;;;;;20.20;48.91;99679.47;5016675;28;20222;-31
2023/12/16 02:57:15;;;;;;;4.37;2.43;;;;;;;20.19;48.91;99687.91;5014749;28;20593;-29
2023/12/16 02:59:42;;;;;;;2.50;2.30;;;;;;;20.19;48.53;99684.47;5017787;28;20249;-28
2023/12/16 03:02:08;;;;;;;2.60;2.17;;;;;;;20.18;48.89;99686.13;5013761;28;20229;-29
2023/12/16 03:04:35;;;;;;;3.67;2.63;;;;;;;20.17;49.06;99692.03;5012786;28;20198;-31
2023/12/16 03:07:01;;;;;;;3.10;2.40;;;;;;;20.18;48.90;99698.91;5015825;28;20229;-28
2023/12/16 03:09:28;;;;;;;3.13;2.30;;;;;;;20.19;48.88;99698.13;5012508;28;20256;-29
2023/12/16 03:11:55;;;;;;;3.03;2.10;;;;;;;20.19;49.05;99703.22;5016624;28;20221;-28
2023/12/16 03:14:21;;;;;;;2.40;2.20;;;;;;;20.18;48.95;99696.34;5014424;28;20658;-29
2023/12/16 03:16:48;;;;;;;3.57;2.63;;;;;;;20.19;48.86;99695.56;5012689;28;20205;-28
2023/12/16 03:19:15;;;;;;;2.67;2.30;;;;;;;20.18;49.00;99688.69;5012393;28;20264;-30
2023/12/16 03:21:42;;;;;;;2.73;2.40;;;;;;;20.19;49.04;99685.34;5017814;28;20218;-30
2023/12/16 03:24:08;;;;;;;2.90;2.43;;;;;;;20.19;48.81;99685.34;5017257;28;20228;-28
2023/12/16 03:26:38;;;;;;;3.40;2.30;;;;;;;20.20;48.80;99694.81;5012981;28;20688;-29
2023/12/16 03:29:05;;;;;;;3.63;2.40;;;;;;;20.19;49.04;99697.25;5013754;28;20207;-28
2023/12/16 03:31:31;;;;;;;3.43;2.43;;;;;;;20.21;48.71;99700.78;5019186;28;20654;-29
2023/12/16 03:33:58;;;;;;;3.20;2.33;;;;;;;20.21;48.95;99685.44;5014081;28;20230;-29
2023/12/16 03:36:25;;;;;;;2.60;2.40;;;;;;;20.21;48.87;99688.00;5013125;28;20667;-28
2023/12/16 03:38:52;;;;;;;2.93;2.20;;;;;;;20.21;48.98;99699.13;5017973;28;20289;-28
2023/12/16 03:41:18;;;;;;;2.50;2.30;;;;;;;20.21;48.81;99691.47;5017584;28;20234;-30
2023/12/16 03:43:45;;;;;;;2.97;2.30;;;;;;;20.20;49.03;99697.34;5018842;28;20194;-29
2023/12/16 03:46:11;;;;;;;3.13;2.50;;;;;;;20.21;48.69;99699.13;5016999;28;20202;-29
2023/12/16 03:48:38;;;;;;;4.07;2.17;;;;;;;20.18;48.83;99695.47;5016349;28;20232;-28
2023/12/16 03:51:05;;;;;;;4.27;2.47;;;;;;;20.20;49.11;99705.00;5019366;28;20487;-35
2023/12/16 03:53:31;;;;;;;2.47;2.27;;;;;;;20.21;49.01;99708.44;5012428;28;20202;-29
2023/12/16 03:55:58;;;;;;;2.63;2.30;;;;;;;20.21;49.05;99709.31;5018984;28;20703;-29
2023/12/16 03:58:25;;;;;;;2.73;2.30;;;;;;;20.22;48.97;99715.34;5010382;28;20215;-29
2023/12/16 04:00:52;;;;;;;3.37;2.50;;;;;;;20.23;48.82;99712.00;5014395;28;20232;-29
2023/12/16 04:03:19;;;;;;;2.47;2.27;;;;;;;20.22;49.03;99703.44;5013150;28;20258;-28
2023/12/16 04:05:45;;;;;;;2.90;2.30;;;;;;;20.11;48.80;99693.25;5016458;28;20582;-31
2023/12/16 04:08:12;;;;;;;3.50;2.20;;;;;;;20.18;48.97;99709.13;5013435;28;20249;-28
2023/12/16 04:10:39;;;;;;;3.17;2.50;;;;;;;20.19;48.99;99703.22;5013150;28;20225;-28
2023/12/16 04:13:05;;;;;;;5.70;2.70;;;;;;;20.19;48.94;99700.66;5012155;28;20202;-28
2023/12/16 04:15:32;;;;;;;2.47;2.27;;;;;;;20.19;49.04;99694.69;5013080;28;20225;-30
2023/12/16 04:17:58;;;;;;;3.20;2.30;;;;;;;20.19;49.22;99689.59;5011740;28;20257;-28
2023/12/16 04:20:26;;;;;;;2.40;2.20;;;;;;;20.20;49.02;99694.81;5012407;28;20222;-27
2023/12/16 04:22:52;;;;;;;3.77;2.00;;;;;;;20.21;49.13;99688.00;5015964;28;20578;-32
2023/12/16 04:25:19;;;;;;;2.40;2.20;;;;;;;20.20;49.10;99683.69;5014935;28;20225;-27
2023/12/16 04:27:45;;;;;;;2.03;1.80;;;;;;;20.21;49.13;99693.13;5016646;28;20198;-28
2023/12/16 04:30:12;;;;;;;2.83;2.50;;;;;;;20.20;49.21;99693.91;5018192;28;20592;-28
2023/12/16 04:32:39;;;;;;;4.53;2.17;;;;;;;20.20;49.03;99691.34;5016928;28;20578;-29
2023/12/16 04:35:06;;;;;;;2.40;2.20;;;;;;;20.18;49.15;99698.91;5016195;28;20221;-28
2023/12/16 04:37:32;;;;;;;3.03;2.10;;;;;;;20.19;49.05;99710.03;5015180;28;20207;-28
2023/12/16 04:39:59;;;;;;;2.53;2.20;;;;;;;20.20;48.97;99722.00;5014463;28;20313;-32
2023/12/16 04:42:26;;;;;;;2.53;2.33;;;;;;;20.19;49.13;99716.00;5015109;28;20293;-28
2023/12/16 04:44:52;;;;;;;2.77;2.23;;;;;;;20.20;49.14;99719.44;5019612;28;20288;-28
2023/12/16 04:47:19;;;;;;;2.73;2.23;;;;;;;20.19;49.16;99722.78;5015447;28;20260;-28
2023/12/16 04:49:45;;;;;;;2.63;2.30;;;;;;;20.19;49.20;99726.19;5014736;28;20246;-30
2023/12/16 04:52:12;;;;;;;2.60;2.40;;;;;;;20.20;49.10;99739.88;5015522;28;20585;-29
2023/12/16 04:54:38;;;;;;;2.40;2.00;;;;;;;20.20;49.10;99740.75;5015461;28;20229;-28
2023/12/16 04:57:05;;;;;;;2.30;2.10;;;;;;;20.20;49.22;99744.97;5023069;28;20238;-27
2023/12/16 04:59:32;;;;;;;5.00;2.10;;;;;;;20.20;49.42;99738.22;5012161;28;20207;-32
2023/12/16 05:01:58;;;;;;;2.43;2.23;;;;;;;20.15;49.08;99724.22;5017643;28;20335;-28
2023/12/16 05:04:25;;;;;;;3.67;2.23;;;;;;;20.11;48.83;99731.53;5015453;28;20589;-28
2023/12/16 05:06:52;;;;;;;2.30;2.10;;;;;;;20.22;49.04;99753.63;5015002;28;20289;-27
2023/12/16 05:09:21;;;;;;;2.53;2.33;;;;;;;20.18;49.18;99765.28;5014294;28;20206;-28
2023/12/16 05:11:47;;;;;;;2.10;1.90;;;;;;;20.20;49.15;99771.41;5015429;28;20264;-27
2023/12/16 05:14:14;;;;;;;2.43;2.13;;;;;;;20.22;49.11;99766.41;5019477;28;20232;-28
2023/12/16 05:16:40;;;;;;;2.60;2.40;;;;;;;20.19;49.04;99758.53;5018312;28;20212;-30
2023/12/16 05:19:07;;;;;;;2.57;2.00;;;;;;;20.19;48.98;99758.53;5014006;28;20216;-29
2023/12/16 05:21:34;;;;;;;2.17;1.97;;;;;;;20.17;49.06;99753.31;5012285;28;20221;-28
2023/12/16 05:24:00;;;;;;;2.80;2.17;;;;;;;20.17;48.97;99739.66;5017064;28;20198;-27
2023/12/16 05:26:27;;;;;;;2.77;2.10;;;;;;;20.19;49.05;99753.41;5014816;28;20613;-31
2023/12/16 05:28:53;;;;;;;2.20;2.00;;;;;;;20.17;49.33;99748.22;5018826;28;20198;-29
2023/12/16 05:31:20;;;;;;;2.40;2.10;;;;;;;20.13;49.22;99740.22;5014103;28;20648;-28
2023/12/16 05:33:47;;;;;;;3.03;2.20;;;;;;;20.16;49.32;99748.97;5023336;28;20302;-28
2023/12/16 05:36:14;;;;;;;2.60;2.40;;;;;;;20.17;49.24;99735.44;5014083;28;20190;-37
2023/12/16 05:38:41;;;;;;;2.30;2.10;;;;;;;20.17;49.17;99735.44;5013243;28;20226;-28
2023/12/16 05:41:07;;;;;;;4.00;1.93;;;;;;;20.17;49.15;99732.88;5015802;28;20219;-31
2023/12/16 05:43:34;;;;;;;2.07;1.97;;;;;;;20.19;49.23;99728.75;5013964;28;20241;-28
2023/12/16 05:46:00;;;;;;;2.83;2.23;;;;;;;20.19;49.12;99727.88;5015290;28;20198;-30
2023/12/16 05:48:27;;;;;;;2.23;2.07;;;;;;;20.19;49.14;99722.78;5013609;28;20447;-28
2023/12/16 05:50:54;;;;;;;2.30;2.10;;;;;;;20.19;49.07;99723.66;5017217;28;20280;-29
2023/12/16 05:53:20;;;;;;;2.47;2.23;;;;;;;20.19;49.21;99716.00;5013783;28;20199;-29
2023/12/16 05:55:47;;;;;;;2.40;2.17;;;;;;;20.19;49.26;99727.88;5017261;28;20343;-28
2023/12/16 05:58:14;;;;;;;2.30;2.00;;;;;;;20.09;49.14;99711.00;5022047;28;20198;-31
2023/12/16 06:00:45;;;;;;;2.10;1.90;;;;;;;20.18;49.23;99732.09;5013809;28;20222;-28
2023/12/16 06:03:12;;;;;;;3.27;2.50;;;;;;;20.18;49.09;99737.22;5014283;28;20739;-31
2023/12/16 06:05:39;;;;;;;2.20;2.00;;;;;;;20.18;49.29;99742.31;5006901;28;20277;-29
2023/12/16 06:08:06;;;;;;;2.37;2.17;;;;;;;20.19;49.30;99740.66;5015884;28;20212;-28
2023/12/16 06:10:32;;;;;;;2.30;2.10;;;;;;;20.19;49.25;99733.00;5013781;28;20226;-29
2023/12/16 06:12:59;;;;;;;2.30;2.10;;;;;;;20.19;49.20;99758.53;5013986;28;20206;-28
2023/12/16 06:15:25;;;;;;;2.30;2.10;;;;;;;20.19;49.12;99738.97;5014892;28;20233;-28
2023/12/16 06:17:52;;;;;;;2.63;2.10;;;;;;;20.20;49.15;99747.53;5020615;28;20241;-27
2023/12/16 06:20:19;;;;;;;2.10;1.90;;;;;;;20.22;49.16;99751.09;5013459;28;20419;-27
2023/12/16 06:22:45;;;;;;;2.07;1.87;;;;;;;20.23;49.16;99746.09;5018843;28;20285;-30
2023/12/16 06:25:12;;;;;;;2.00;1.77;;;;;;;20.24;49.12;99752.06;5018326;28;20281;-29
2023/12/16 06:27:40;;;;;;;2.47;1.90;;;;;;;20.21;48.98;99745.06;5015651;28;20570;-28
2023/12/16 06:30:08;;;;;;;1.80;1.70;;;;;;;20.27;48.84;99747.16;5021527;28;20229;-28
2023/12/16 06:32:35;;;;;;;2.20;2.00;;;;;;;20.27;48.90;99737.84;5014929;28;20276;-28
2023/12/16 06:35:02;;;;;;;2.17;1.97;;;;;;;20.28;48.96;99728.53;5013419;28;20253;-29
2023/12/16 06:37:29;;;;;;;2.00;1.90;;;;;;;20.29;49.04;99726.06;5013315;28;20206;-28
2023/12/16 06:39:55;;;;;;;2.43;2.20;;;;;;;20.29;48.89;99735.41;5017747;28;20344;-27
2023/12/16 06:42:22;;;;;;;1.90;1.80;;;;;;;20.27;49.07;99753.16;5012803;28;20199;-29
2023/12/16 06:44:49;;;;;;;2.40;2.20;;;;;;;20.28;48.97;99756.63;5018613;28;20198;-28
2023/12/16 06:47:15;;;;;;;2.40;2.20;;;;;;;20.27;48.87;99765.94;5017673;28;20233;-28
2023/12/16 06:49:42;;;;;;;4.17;2.70;;;;;;;20.26;48.63;99771.81;5017564;28;20190;-27
2023/12/16 06:52:08;;;;;;;4.37;3.57;;;;;;;20.28;47.12;99780.47;5013206;28;20268;-30
2023/12/16 06:54:35;;;;;;;4.87;4.47;;;;;;;20.28;45.92;99784.72;5011125;28;20309;-30
2023/12/16 06:57:01;;;;;;;7.00;5.03;;;;;;;20.29;44.69;99786.47;5013421;28;20253;-28
2023/12/16 06:59:28;;;;;;;6.67;5.77;;;;;;;20.29;43.93;99784.81;5011778;28;20199;-28
2023/12/16 07:01:55;;;;;;;6.03;5.53;;;;;;;20.31;43.73;99790.03;5011897;28;20309;-31
2023/12/16 07:04:24;;;;;;;9.97;5.97;;;;;;;20.30;43.10;99788.22;5011615;28;20222;-27
2023/12/16 07:06:50;;;;;;;6.77;6.17;;;;;;;20.30;42.94;99783.13;5011869;28;20198;-28
2023/12/16 07:09:17;;;;;;;7.73;5.70;;;;;;;20.24;42.22;99765.72;5014384;28;20581;-30
2023/12/16 07:11:43;;;;;;;9.33;6.00;;;;;;;20.27;42.01;99753.16;5014869;28;20716;-30
2023/12/16 07:14:10;;;;;;;6.90;6.20;;;;;;;20.24;42.49;99762.25;5016729;28;20268;-30
2023/12/16 07:16:37;;;;;;;7.87;6.27;;;;;;;20.18;42.81;99764.41;5013966;28;20701;-28
2023/12/16 07:19:03;;;;;;;7.50;6.80;;;;;;;20.15;42.06;99774.41;5011863;28;20206;-33
2023/12/16 07:21:30;;;;;;;7.60;6.90;;;;;;;20.12;42.35;99772.50;5006957;28;20297;-29
2023/12/16 07:23:57;;;;;;;7.43;6.83;;;;;;;20.09;42.04;99769.72;5009710;28;20252;-29
2023/12/16 07:26:23;;;;;;;7.67;6.97;;;;;;;20.09;41.60;99779.94;5012873;28;20291;-29
2023/12/16 07:28:50;;;;;;;7.97;7.20;;;;;;;20.15;41.52;99775.28;5011872;28;20205;-30
2023/12/16 07:31:16;;;;;;;7.03;6.43;;;;;;;20.14;41.47;99791.41;5011715;28;20222;-35
2023/12/16 07:33:43;;;;;;;7.60;6.90;;;;;;;20.11;41.66;99803.00;5010133;28;20205;-28
2023/12/16 07:36:10;;;;;;;7.77;7.07;;;;;;;20.11;41.68;99810.69;5010164;28;20218;-28
2023/12/16 07:38:37;;;;;;;10.70;8.00;;;;;;;20.10;41.70;99806.34;5014932;28;20198;-28
2023/12/16 07:41:04;;;;;;;8.27;7.47;;;;;;;20.08;41.11;99795.13;5015121;28;20249;-27
2023/12/16 07:43:30;;;;;;;8.43;7.63;;;;;;;20.03;41.69;99810.13;5012305;28;20202;-30
2023/12/16 07:45:57;;;;;;;7.27;6.60;;;;;;;20.05;42.39;99808.59;5013722;28;20205;-28
2023/12/16 07:48:24;;;;;;;7.93;7.13;;;;;;;20.02;42.69;99805.81;5012172;28;20206;-30
2023/12/16 07:50:53;;;;;;;7.03;6.43;;;;;;;20.02;43.33;99816.91;5016542;28;20222;-29
2023/12/16 07:53:21;;;;;;;8.73;6.37;;;;;;;20.02;43.98;99801.56;5012640;28;20202;-39
2023/12/16 07:55:48;;;;;;;9.00;6.10;;;;;;;20.02;44.35;99799.81;5010132;28;20252;-28
2023/12/16 07:58:15;;;;;;;7.83;5.57;;;;;;;20.06;45.08;99802.69;5018886;28;20276;-30
2023/12/16 08:00:42;;;;;;;7.33;5.63;;;;;;;20.10;45.02;99811.47;5016310;28;20666;-32
2023/12/16 08:03:08;;;;;;;6.40;5.50;;;;;;;20.07;44.73;99801.91;5014668;28;20198;-28
2023/12/16 08:05:35;;;;;;;5.60;5.10;;;;;;;20.08;45.16;99795.13;5015252;28;20360;-28
2023/12/16 08:08:02;;;;;;;6.33;5.57;;;;;;;20.07;45.36;99794.25;5017168;28;20206;-31
2023/12/16 08:10:29;;;;;;;5.60;5.10;;;;;;;20.09;45.41;99794.34;5015602;28;20304;-28
2023/12/16 08:12:56;;;;;;;5.60;5.10;;;;;;;20.11;45.65;99795.34;5014875;28;20694;-29
2023/12/16 08:15:23;;;;;;;7.27;5.03;;;;;;;20.13;46.05;99801.50;5014922;28;20230;-29
2023/12/16 08:17:49;;;;;;;5.43;4.93;;;;;;;20.13;46.13;99806.59;5017253;28;20199;-28
2023/12/16 08:20:16;;;;;;;5.97;4.50;;;;;;;20.12;46.87;99807.34;5016249;28;20228;-29
2023/12/16 08:22:43;;;;;;;5.03;4.13;;;;;;;20.12;46.36;99804.78;5014670;28;20245;-30
2023/12/16 08:25:10;;;;;;;7.40;4.83;;;;;;;20.15;46.45;99807.59;5016205;28;20236;-28
2023/12/16 08:27:37;;;;;;;6.53;4.87;;;;;;;20.15;46.56;99800.81;5017851;28;20233;-29
2023/12/16 08:30:05;;;;;;;5.80;4.80;;;;;;;20.19;46.67;99805.34;5015203;28;20309;-28
2023/12/16 08:32:32;;;;;;;5.60;4.20;;;;;;;20.18;46.71;99810.34;5014875;28;20206;-28
2023/12/16 08:34:59;;;;;;;5.30;4.03;;;;;;;20.17;46.76;99811.16;5011384;28;20202;-30
2023/12/16 08:37:26;;;;;;;4.13;3.70;;;;;;;20.17;46.97;99817.16;5015095;28;20212;-28
2023/12/16 08:39:53;;;;;;;7.37;3.97;;;;;;;20.16;46.97;99825.56;5020313;28;20296;-31
2023/12/16 08:42:19;;;;;;;6.43;4.33;;;;;;;20.17;46.88;99839.22;5015766;28;20290;-29
2023/12/16 08:44:46;;;;;;;7.43;4.50;;;;;;;20.18;47.08;99856.31;5014980;28;20198;-29
2023/12/16 08:47:13;;;;;;;5.10;3.80;;;;;;;20.20;47.25;99860.78;5016089;28;20210;-28
2023/12/16 08:49:43;;;;;;;9.80;3.97;;;;;;;20.25;47.24;99866.22;5015527;28;20202;-30
2023/12/16 08:52:10;;;;;;;13.00;4.87;;;;;;;20.24;47.29;99860.19;5013895;28;20203;-33
2023/12/16 08:54:40;;;;;;;14.53;4.30;;;;;;;20.23;47.44;99871.19;5014234;28;20209;-28
2023/12/16 08:57:07;;;;;;;6.07;3.90;;;;;;;20.24;47.62;99872.06;5019421;28;20253;-28
2023/12/16 08:59:34;;;;;;;6.53;3.83;;;;;;;20.21;47.59;99871.84;5014133;28;20277;-33
2023/12/16 09:02:01;;;;;;;5.77;3.80;;;;;;;20.26;47.46;99868.88;5019984;28;20221;-28
2023/12/16 09:04:28;;;;;;;6.53;3.70;;;;;;;20.25;47.56;99871.31;5015772;28;20689;-29
2023/12/16 09:06:55;;;;;;;7.53;4.10;;;;;;;20.25;47.82;99876.41;5013375;28;20204;-30
2023/12/16 09:09:21;;;;;;;9.40;4.40;;;;;;;20.24;47.23;99875.53;5013100;28;20209;-28
2023/12/16 09:11:48;;;;;;;6.03;5.43;;;;;;;20.21;46.35;99882.97;5021548;28;20253;-29
2023/12/16 09:14:14;;;;;;;14.77;4.80;;;;;;;20.22;46.69;99883.88;5016502;28;20206;-30
2023/12/16 09:16:42;;;;;;;5.23;4.37;;;;;;;20.21;46.81;99885.50;5020769;28;20214;-28
2023/12/16 09:19:11;;;;;;;6.20;4.47;;;;;;;20.23;46.78;99893.28;5014583;28;20290;-29
2023/12/16 09:21:38;;;;;;;7.23;4.60;;;;;;;20.22;46.88;99894.94;5014920;28;20221;-28
2023/12/16 09:24:06;;;;;;;6.37;4.43;;;;;;;20.23;47.16;99885.63;5018710;28;20238;-29
2023/12/16 09:26:32;;;;;;;8.17;4.37;;;;;;;20.24;47.36;99889.94;5012920;28;20269;-28
2023/12/16 09:29:00;;;;;;;10.07;4.20;;;;;;;20.24;47.16;99889.94;5012242;28;20202;-31
2023/12/16 09:31:27;;;;;;;4.60;3.90;;;;;;;20.23;47.51;99889.09;5014119;28;20222;-32
2023/12/16 09:33:53;;;;;;;4.87;3.90;;;;;;;20.22;47.66;99892.38;5016531;28;20205;-28
2023/12/16 09:36:26;;;;;;;7.00;4.13;;;;;;;20.21;47.55;99882.06;5015700;28;20222;-28
2023/12/16 09:38:57;;;;;;;7.33;4.20;;;;;;;20.22;47.58;99882.19;5021444;28;20197;-30
2023/12/16 09:41:24;;;;;;;5.67;3.90;;;;;;;20.21;47.63;99872.75;5014701;28;20766;-32
2023/12/16 09:43:55;;;;;;;4.47;3.83;;;;;;;20.20;47.72;99876.09;5015944;28;20198;-27
2023/12/16 09:46:23;;;;;;;5.43;3.73;;;;;;;20.20;47.71;99873.53;5016575;28;20281;-29
2023/12/16 09:48:50;;;;;;;5.07;4.03;;;;;;;20.20;47.63;99873.53;5012796;28;20252;-29
2023/12/16 09:51:17;;;;;;;8.23;7.23;;;;;;;20.17;44.95;99870.75;5014177;28;20226;-28
2023/12/16 09:53:44;;;;;;;7.53;6.60;;;;;;;20.16;45.14;99870.66;5016151;28;20275;-30
2023/12/16 09:56:11;;;;;;;16.47;5.70;;;;;;;20.15;45.51;99872.31;5013067;28;20226;-29
2023/12/16 09:58:43;;;;;;;7.20;6.27;;;;;;;20.14;45.72;99877.31;5013080;28;20202;-31
2023/12/16 10:01:10;;;;;;;9.57;7.47;;;;;;;20.14;45.47;99880.75;5010863;28;20231;-28
2023/12/16 10:03:37;;;;;;;7.80;7.00;;;;;;;20.15;45.76;99885.06;5017029;28;20206;-29
2023/12/16 10:06:08;;;;;;;7.57;6.83;;;;;;;20.17;45.94;99892.84;5013952;28;20199;-28
2023/12/16 10:08:35;;;;;;;10.07;7.17;;;;;;;20.15;46.25;99889.28;5013111;28;20234;-30
2023/12/16 10:11:02;;;;;;;6.63;6.00;;;;;;;20.14;46.25;99887.53;5013101;28;20662;-27
2023/12/16 10:13:56;;;;;;;8.30;6.90;;;;;;;20.14;46.41;99880.75;5019993;28;20260;-29
2023/12/16 10:16:24;;;;;;;8.33;7.20;;;;;;;20.15;44.48;99884.19;5013086;28;20214;-29
2023/12/16 10:18:54;;;;;;;10.10;9.10;;;;;;;20.12;43.00;99873.72;5012996;28;20249;-28
2023/12/16 10:21:29;;;;;;;12.23;8.93;;;;;;;20.11;42.79;99874.50;5015363;28;20226;-29
2023/12/16 10:23:55;;;;;;;11.27;10.17;;;;;;;20.08;42.47;99881.94;5013641;28;20199;-29
2023/12/16 10:26:22;;;;;;;10.13;9.13;;;;;;;20.04;42.79;99888.47;5012401;28;20202;-28
2023/12/16 10:28:50;;;;;;;10.47;9.47;;;;;;;20.03;42.88;99881.59;5012774;28;20202;-28
2023/12/16 10:31:18;;;;;;;10.43;9.23;;;;;;;20.03;43.45;99881.59;5014766;28;20250;-33
2023/12/16 10:33:45;;;;;;;10.27;8.60;;;;;;;20.02;43.83;99881.50;5012876;28;20198;-28
2023/12/16 10:36:12;;;;;;;10.17;8.17;;;;;;;20.04;44.22;99882.50;5011153;28;20263;-29
2023/12/16 10:38:38;;;;;;;9.80;8.80;;;;;;;20.03;44.34;99873.94;5013651;28;20748;-31
2023/12/16 10:41:05;;;;;;;8.73;7.93;;;;;;;20.02;43.37;99871.28;5012286;28;20229;-29
2023/12/16 10:43:32;;;;;;;10.60;9.17;;;;;;;20.03;42.72;99873.94;5014373;28;20213;-29
2023/12/16 10:46:04;;;;;;;10.43;9.43;;;;;;;20.02;42.63;99861.06;5012944;28;20205;-29
2023/12/16 10:48:32;;;;;;;11.40;10.20;;;;;;;20.02;41.72;99864.53;5011633;28;20198;-29
2023/12/16 10:51:03;;;;;;;12.70;11.00;;;;;;;19.99;41.69;99856.66;5012434;28;20230;-28
2023/12/16 10:53:40;;;;;;;13.27;10.43;;;;;;;19.97;41.89;99865.84;5014001;28;20198;-28
2023/12/16 10:56:17;;;;;;;11.73;10.60;;;;;;;19.92;42.02;99860.41;5013720;28;20720;-29
2023/12/16 10:58:51;;;;;;;11.53;10.33;;;;;;;19.92;42.71;99851.84;4995577;28;20699;-31
2023/12/16 11:01:18;;;;;;;13.10;9.73;;;;;;;19.91;43.30;99845.00;5027123;28;20651;-29
2023/12/16 11:04:23;;;;;;;11.47;9.13;;;;;;;19.91;43.97;99824.56;5014640;28;20233;-31
2023/12/16 11:06:59;;;;;;;9.33;8.43;;;;;;;19.92;44.38;99817.03;4970683;28;20209;-29
2023/12/16 11:09:26;;;;;;;9.10;8.20;;;;;;;19.92;44.68;99817.03;5005232;28;20595;-28
2023/12/16 11:11:56;;;;;;;9.53;8.53;;;;;;;19.93;45.10;99821.34;5011008;28;20620;-28
2023/12/16 11:14:22;;;;;;;10.33;8.77;;;;;;;19.92;45.29;99808.47;5014169;28;20213;-28
2023/12/16 11:16:59;;;;;;;8.53;7.67;;;;;;;19.94;45.27;99812.94;5026664;28;20280;-28
2023/12/16 11:19:28;;;;;;;10.83;8.17;;;;;;;19.95;45.52;99817.25;5012422;28;20194;-28
2023/12/16 11:21:55;;;;;;;7.73;6.93;;;;;;;19.95;45.44;99799.38;5009435;28;20221;-28
2023/12/16 11:24:22;;;;;;;7.70;7.00;;;;;;;19.97;45.90;99789.28;5016856;28;20218;-32
2023/12/16 11:26:54;;;;;;;7.87;7.03;;;;;;;19.98;45.40;99800.38;5011447;28;20252;-28
2023/12/16 11:29:23;;;;;;;8.93;7.87;;;;;;;19.99;45.96;99797.94;5011841;28;20245;-28
2023/12/16 11:31:51;;;;;;;7.67;6.83;;;;;;;20.00;46.10;99804.81;5017300;28;20225;-31